sensor_id;sensor_type;location;lat;lon;timestamp;pressure;altitude;pressure_sealevel;temperature;humidity
21742;BME280;11033;47.490;11.116;2023-03-23T00:02:28;92806.78;;;8.13;70.45
21742;BME280;11033;47.490;11.116;2023-03-23T00:04:54;92799.63;;;8.07;72.62
21742;BME280;11033;47.490;11.116;2023-03-23T00:07:20;92804.63;;;8.02;72.70
21742;BME280;11033;47.490;11.116;2023-03-23T00:09:48;92798.81;;;8.07;72.64
21742;BME280;11033;47.490;11.116;2023-03-23T00:12:18;92803.63;;;8.03;73.20
21742;BME280;11033;47.490;11.116;2023-03-23T00:14:43;92800.00;;;8.04;72.22
21742;BME280;11033;47.490;11.116;2023-03-23T00:17:09;92804.97;;;8.14;71.77
21742;BME280;11033;47.490;11.116;2023-03-23T00:19:40;92801.25;;;8.08;71.53
21742;BME280;11033;47.490;11.116;2023-03-23T00:22:15;92806.25;;;8.03;72.64
21742;BME280;11033;47.490;11.116;2023-03-23T00:24:41;92798.38;;;8.03;72.57
21742;BME280;11033;47.490;11.116;2023-03-23T00:27:07;92794.13;;;8.02;72.26
21742;BME280;11033;47.490;11.116;2023-03-23T00:29:34;92795.28;;;8.14;70.27
21742;BME280;11033;47.490;11.116;2023-03-23T00:31:59;92787.22;;;8.16;70.03
21742;BME280;11033;47.490;11.116;2023-03-23T00:34:25;92791.13;;;8.05;70.35
21742;BME280;11033;47.490;11.116;2023-03-23T00:36:52;92788.25;;;8.00;72.85
21742;BME280;11033;47.490;11.116;2023-03-23T00:39:22;92785.63;;;8.00;71.31
21742;BME280;11033;47.490;11.116;2023-03-23T00:41:49;92789.41;;;8.12;69.72
21742;BME280;11033;47.490;11.116;2023-03-23T00:44:15;92789.50;;;8.04;71.94
21742;BME280;11033;47.490;11.116;2023-03-23T00:46:45;92785.91;;;8.05;72.34
21742;BME280;11033;47.490;11.116;2023-03-23T00:49:16;92779.53;;;8.14;71.45
21742;BME280;11033;47.490;11.116;2023-03-23T00:51:41;92780.09;;;8.10;72.58
21742;BME280;11033;47.490;11.116;2023-03-23T00:54:07;92792.91;;;8.19;71.35
21742;BME280;11033;47.490;11.116;2023-03-23T00:56:33;92795.13;;;8.01;72.48
21742;BME280;11033;47.490;11.116;2023-03-23T00:58:59;92798.09;;;8.13;71.29
21742;BME280;11033;47.490;11.116;2023-03-23T01:01:24;92791.66;;;8.15;71.76
21742;BME280;11033;47.490;11.116;2023-03-23T01:03:50;92792.09;;;8.19;71.42
21742;BME280;11033;47.490;11.116;2023-03-23T01:06:15;92790.47;;;8.18;70.37
21742;BME280;11033;47.490;11.116;2023-03-23T01:08:41;92784.88;;;8.21;69.64
21742;BME280;11033;47.490;11.116;2023-03-23T01:11:13;92785.41;;;8.16;71.23
21742;BME280;11033;47.490;11.116;2023-03-23T01:13:39;92783.16;;;8.13;71.07
21742;BME280;11033;47.490;11.116;2023-03-23T01:16:06;92789.66;;;8.17;72.05
21742;BME280;11033;47.490;11.116;2023-03-23T01:18:31;92789.16;;;8.07;73.37
21742;BME280;11033;47.490;11.116;2023-03-23T01:20:57;92784.31;;;8.25;71.13
21742;BME280;11033;47.490;11.116;2023-03-23T01:23:22;92784.06;;;8.20;72.27
21742;BME280;11033;47.490;11.116;2023-03-23T01:25:47;92781.47;;;7.91;73.87
21742;BME280;11033;47.490;11.116;2023-03-23T01:28:14;92779.84;;;8.05;72.33
21742;BME280;11033;47.490;11.116;2023-03-23T01:30:39;92768.78;;;8.09;72.40
21742;BME280;11033;47.490;11.116;2023-03-23T01:33:05;92763.38;;;7.96;73.57
21742;BME280;11033;47.490;11.116;2023-03-23T01:35:30;92760.69;;;7.89;73.90
21742;BME280;11033;47.490;11.116;2023-03-23T01:37:55;92757.53;;;7.94;72.97
21742;BME280;11033;47.490;11.116;2023-03-23T01:40:21;92760.03;;;8.02;73.61
21742;BME280;11033;47.490;11.116;2023-03-23T01:42:46;92763.56;;;7.94;72.85
21742;BME280;11033;47.490;11.116;2023-03-23T01:45:24;92763.94;;;7.91;73.19
21742;BME280;11033;47.490;11.116;2023-03-23T01:50:26;92763.69;;;7.86;71.66
21742;BME280;11033;47.490;11.116;2023-03-23T01:52:55;92754.72;;;7.95;70.33
21742;BME280;11033;47.490;11.116;2023-03-23T01:55:24;92752.28;;;7.94;71.49
21742;BME280;11033;47.490;11.116;2023-03-23T01:57:52;92754.28;;;7.92;72.19
21742;BME280;11033;47.490;11.116;2023-03-23T02:00:17;92751.91;;;7.97;71.77
21742;BME280;11033;47.490;11.116;2023-03-23T02:02:44;92757.53;;;7.94;71.40
21742;BME280;11033;47.490;11.116;2023-03-23T02:05:14;92754.63;;;7.89;71.84
21742;BME280;11033;47.490;11.116;2023-03-23T02:07:43;92757.88;;;7.91;72.42
21742;BME280;11033;47.490;11.116;2023-03-23T02:10:09;92756.53;;;7.95;71.99
21742;BME280;11033;47.490;11.116;2023-03-23T02:12:35;92752.81;;;7.89;73.37
21742;BME280;11033;47.490;11.116;2023-03-23T02:15:01;92748.22;;;7.91;70.71
21742;BME280;11033;47.490;11.116;2023-03-23T02:17:46;92753.16;;;8.01;71.90
21742;BME280;11033;47.490;11.116;2023-03-23T02:31:36;92752.28;;;7.94;71.46
21742;BME280;11033;47.490;11.116;2023-03-23T02:34:15;92749.09;;;7.99;72.03
21742;BME280;11033;47.490;11.116;2023-03-23T02:37:03;92749.09;;;7.99;71.82
21742;BME280;11033;47.490;11.116;2023-03-23T02:39:34;92733.28;;;7.92;71.00
21742;BME280;11033;47.490;11.116;2023-03-23T02:42:05;92729.66;;;7.93;72.55
21742;BME280;11033;47.490;11.116;2023-03-23T02:44:33;92741.03;;;8.00;71.60
21742;BME280;11033;47.490;11.116;2023-03-23T02:47:00;92737.28;;;7.88;73.49
21742;BME280;11033;47.490;11.116;2023-03-23T02:49:29;92743.69;;;7.85;73.66
21742;BME280;11033;47.490;11.116;2023-03-23T02:51:58;92735.28;;;7.90;73.09
21742;BME280;11033;47.490;11.116;2023-03-23T02:54:25;92737.28;;;7.88;71.67
21742;BME280;11033;47.490;11.116;2023-03-23T02:56:53;92733.09;;;7.79;72.08
21742;BME280;11033;47.490;11.116;2023-03-23T02:59:20;92733.09;;;7.79;71.98
21742;BME280;11033;47.490;11.116;2023-03-23T03:01:50;92739.97;;;7.80;71.53
21742;BME280;11033;47.490;11.116;2023-03-23T03:04:19;92727.72;;;7.80;72.80
21742;BME280;11033;47.490;11.116;2023-03-23T03:07:02;92728.22;;;7.76;74.06
21742;BME280;11033;47.490;11.116;2023-03-23T03:12:14;92748.22;;;7.62;73.50
21742;BME280;11033;47.490;11.116;2023-03-23T03:18:32;92746.31;;;7.71;73.36
21742;BME280;11033;47.490;11.116;2023-03-23T03:20:36;92741.63;;;7.81;72.10
21742;BME280;11033;47.490;11.116;2023-03-23T03:23:03;92737.09;;;7.75;72.95
21742;BME280;11033;47.490;11.116;2023-03-23T03:25:30;92742.69;;;7.72;72.52
21742;BME280;11033;47.490;11.116;2023-03-23T03:27:56;92739.09;;;7.73;72.16
21742;BME280;11033;47.490;11.116;2023-03-23T03:30:26;92744.69;;;7.70;71.75
21742;BME280;11033;47.490;11.116;2023-03-23T03:32:53;92745.41;;;7.63;72.89
21742;BME280;11033;47.490;11.116;2023-03-23T03:35:22;92745.78;;;7.60;72.96
21742;BME280;11033;47.490;11.116;2023-03-23T03:37:47;92744.88;;;7.53;73.17
21742;BME280;11033;47.490;11.116;2023-03-23T03:40:16;92748.06;;;7.49;73.21
21742;BME280;11033;47.490;11.116;2023-03-23T03:42:43;92737.66;;;7.41;75.40
21742;BME280;11033;47.490;11.116;2023-03-23T03:45:12;92729.63;;;7.42;73.82
21742;BME280;11033;47.490;11.116;2023-03-23T03:47:38;92734.31;;;7.47;73.75
21742;BME280;11033;47.490;11.116;2023-03-23T03:50:04;92751.94;;;7.38;74.67
21742;BME280;11033;47.490;11.116;2023-03-23T03:52:29;92741.16;;;7.62;73.17
21742;BME280;11033;47.490;11.116;2023-03-23T03:54:54;92754.47;;;7.61;73.00
21742;BME280;11033;47.490;11.116;2023-03-23T03:57:21;92750.13;;;7.53;72.56
21742;BME280;11033;47.490;11.116;2023-03-23T03:59:46;92748.41;;;7.46;73.10
21742;BME280;11033;47.490;11.116;2023-03-23T04:02:12;92749.22;;;7.46;73.42
21742;BME280;11033;47.490;11.116;2023-03-23T04:04:41;92747.69;;;7.52;73.08
21742;BME280;11033;47.490;11.116;2023-03-23T04:07:08;92749.13;;;7.54;72.92
21742;BME280;11033;47.490;11.116;2023-03-23T04:09:36;92751.38;;;7.57;71.74
21742;BME280;11033;47.490;11.116;2023-03-23T04:12:02;92756.28;;;7.60;72.06
21742;BME280;11033;47.490;11.116;2023-03-23T04:14:27;92759.72;;;7.46;74.03
21742;BME280;11033;47.490;11.116;2023-03-23T04:16:52;92762.06;;;7.41;73.71
21742;BME280;11033;47.490;11.116;2023-03-23T04:19:22;92765.50;;;7.56;71.76
21742;BME280;11033;47.490;11.116;2023-03-23T04:21:47;92759.72;;;7.46;72.52
21742;BME280;11033;47.490;11.116;2023-03-23T04:24:14;92768.19;;;7.34;74.64
21742;BME280;11033;47.490;11.116;2023-03-23T04:26:40;92765.03;;;7.38;73.11
21742;BME280;11033;47.490;11.116;2023-03-23T04:29:07;92764.03;;;7.39;73.62
21742;BME280;11033;47.490;11.116;2023-03-23T04:31:33;92753.75;;;7.23;74.54
21742;BME280;11033;47.490;11.116;2023-03-23T04:34:00;92761.88;;;7.28;75.43
21742;BME280;11033;47.490;11.116;2023-03-23T04:36:27;92769.56;;;7.29;74.59
21742;BME280;11033;47.490;11.116;2023-03-23T04:38:54;92766.66;;;7.24;75.10
21742;BME280;11033;47.490;11.116;2023-03-23T04:41:20;92775.41;;;7.17;75.50
21742;BME280;11033;47.490;11.116;2023-03-23T04:43:45;92782.19;;;7.26;74.53
21742;BME280;11033;47.490;11.116;2023-03-23T04:46:11;92779.56;;;7.26;74.52
21742;BME280;11033;47.490;11.116;2023-03-23T04:48:36;92783.00;;;7.26;75.40
21742;BME280;11033;47.490;11.116;2023-03-23T04:51:04;92774.88;;;7.36;73.96
21742;BME280;11033;47.490;11.116;2023-03-23T04:53:31;92775.97;;;7.27;74.59
21742;BME280;11033;47.490;11.116;2023-03-23T04:55:56;92777.66;;;7.20;75.09
21742;BME280;11033;47.490;11.116;2023-03-23T04:58:22;92770.97;;;7.17;75.51
21742;BME280;11033;47.490;11.116;2023-03-23T05:00:49;92768.19;;;7.19;75.21
21742;BME280;11033;47.490;11.116;2023-03-23T05:03:17;92768.38;;;6.94;77.01
21742;BME280;11033;47.490;11.116;2023-03-23T05:05:43;92765.06;;;7.00;75.40
21742;BME280;11033;47.490;11.116;2023-03-23T05:08:14;92771.22;;;7.08;75.42
21742;BME280;11033;47.490;11.116;2023-03-23T05:10:40;92770.94;;;7.03;75.99
21742;BME280;11033;47.490;11.116;2023-03-23T05:13:05;92776.81;;;7.05;75.37
21742;BME280;11033;47.490;11.116;2023-03-23T05:15:31;92779.59;;;7.03;75.25
21742;BME280;11033;47.490;11.116;2023-03-23T05:17:56;92775.19;;;7.04;75.74
21742;BME280;11033;47.490;11.116;2023-03-23T05:20:21;92783.66;;;7.06;75.35
21742;BME280;11033;47.490;11.116;2023-03-23T05:22:48;92783.25;;;7.17;73.95
21742;BME280;11033;47.490;11.116;2023-03-23T05:25:14;92782.31;;;7.10;75.60
21742;BME280;11033;47.490;11.116;2023-03-23T05:27:40;92766.44;;;7.11;73.87
21742;BME280;11033;47.490;11.116;2023-03-23T05:30:09;92768.41;;;7.09;74.27
21742;BME280;11033;47.490;11.116;2023-03-23T05:32:34;92770.84;;;7.11;74.16
21742;BME280;11033;47.490;11.116;2023-03-23T05:35:00;92773.47;;;7.11;74.59
21742;BME280;11033;47.490;11.116;2023-03-23T05:37:27;92772.13;;;7.15;74.42
21742;BME280;11033;47.490;11.116;2023-03-23T05:39:59;92768.81;;;7.21;75.40
21742;BME280;11033;47.490;11.116;2023-03-23T05:42:31;92770.97;;;7.17;74.53
21742;BME280;11033;47.490;11.116;2023-03-23T05:44:56;92773.88;;;7.22;75.32
21742;BME280;11033;47.490;11.116;2023-03-23T05:47:22;92765.66;;;7.25;75.09
21742;BME280;11033;47.490;11.116;2023-03-23T05:49:47;92768.38;;;7.32;75.88
21742;BME280;11033;47.490;11.116;2023-03-23T05:52:13;92769.66;;;7.36;74.82
21742;BME280;11033;47.490;11.116;2023-03-23T05:54:38;92767.94;;;7.43;75.39
21742;BME280;11033;47.490;11.116;2023-03-23T05:57:03;92774.34;;;7.55;74.41
21742;BME280;11033;47.490;11.116;2023-03-23T05:59:29;92776.34;;;7.53;74.35
21742;BME280;11033;47.490;11.116;2023-03-23T06:01:54;92778.03;;;7.61;74.41
21742;BME280;11033;47.490;11.116;2023-03-23T06:04:20;92768.81;;;7.65;73.78
21742;BME280;11033;47.490;11.116;2023-03-23T06:06:49;92778.94;;;7.68;73.55
21742;BME280;11033;47.490;11.116;2023-03-23T06:09:15;92777.03;;;7.77;74.14
21742;BME280;11033;47.490;11.116;2023-03-23T06:11:42;92785.19;;;7.82;74.34
21742;BME280;11033;47.490;11.116;2023-03-23T06:14:07;92779.22;;;7.88;74.56
21742;BME280;11033;47.490;11.116;2023-03-23T06:16:32;92773.97;;;7.88;74.63
21742;BME280;11033;47.490;11.116;2023-03-23T06:18:58;92779.31;;;7.94;72.86
21742;BME280;11033;47.490;11.116;2023-03-23T06:21:25;92768.91;;;8.01;72.87
21742;BME280;11033;47.490;11.116;2023-03-23T06:23:51;92773.88;;;7.96;74.40
21742;BME280;11033;47.490;11.116;2023-03-23T06:26:18;92767.28;;;8.00;74.25
21742;BME280;11033;47.490;11.116;2023-03-23T06:28:43;92768.28;;;7.99;74.74
21742;BME280;11033;47.490;11.116;2023-03-23T06:31:09;92777.41;;;8.03;74.20
21742;BME280;11033;47.490;11.116;2023-03-23T06:33:36;92774.03;;;8.09;73.64
21742;BME280;11033;47.490;11.116;2023-03-23T06:36:03;92766.53;;;8.06;75.54
21742;BME280;11033;47.490;11.116;2023-03-23T06:38:28;92762.63;;;8.17;73.63
21742;BME280;11033;47.490;11.116;2023-03-23T06:40:55;92758.00;;;8.19;73.94
21742;BME280;11033;47.490;11.116;2023-03-23T06:43:22;92759.44;;;8.21;73.38
21742;BME280;11033;47.490;11.116;2023-03-23T06:45:47;92741.34;;;8.26;74.20
21742;BME280;11033;47.490;11.116;2023-03-23T06:48:13;92743.94;;;8.26;73.72
21742;BME280;11033;47.490;11.116;2023-03-23T06:50:41;92746.19;;;8.30;74.64
21742;BME280;11033;47.490;11.116;2023-03-23T06:53:07;92738.88;;;8.40;73.46
21742;BME280;11033;47.490;11.116;2023-03-23T06:55:32;92738.31;;;8.44;72.64
21742;BME280;11033;47.490;11.116;2023-03-23T06:57:57;92736.03;;;8.56;73.75
21742;BME280;11033;47.490;11.116;2023-03-23T07:00:25;92745.78;;;8.62;72.24
21742;BME280;11033;47.490;11.116;2023-03-23T07:02:50;92739.72;;;8.62;72.79
21742;BME280;11033;47.490;11.116;2023-03-23T07:05:15;92742.22;;;8.70;71.51
21742;BME280;11033;47.490;11.116;2023-03-23T07:07:41;92740.63;;;8.75;71.24
21742;BME280;11033;47.490;11.116;2023-03-23T07:10:08;92736.63;;;8.79;71.40
21742;BME280;11033;47.490;11.116;2023-03-23T07:12:35;92728.00;;;8.85;70.54
21742;BME280;11033;47.490;11.116;2023-03-23T07:15:02;92733.97;;;9.01;70.09
21742;BME280;11033;47.490;11.116;2023-03-23T07:17:28;92732.09;;;8.95;70.20
21742;BME280;11033;47.490;11.116;2023-03-23T07:19:53;92736.78;;;8.99;70.61
21742;BME280;11033;47.490;11.116;2023-03-23T07:22:19;92742.38;;;9.11;70.58
21742;BME280;11033;47.490;11.116;2023-03-23T07:24:44;92743.84;;;9.20;70.24
21742;BME280;11033;47.490;11.116;2023-03-23T07:27:10;92750.34;;;9.24;70.09
21742;BME280;11033;47.490;11.116;2023-03-23T07:29:35;92746.75;;;9.32;69.65
21742;BME280;11033;47.490;11.116;2023-03-23T07:32:04;92754.53;;;9.46;69.73
21742;BME280;11033;47.490;11.116;2023-03-23T07:34:29;92746.47;;;9.54;69.25
21742;BME280;11033;47.490;11.116;2023-03-23T07:36:55;92743.69;;;9.63;68.95
21742;BME280;11033;47.490;11.116;2023-03-23T07:39:21;92748.19;;;9.69;69.61
21742;BME280;11033;47.490;11.116;2023-03-23T07:41:48;92748.69;;;9.85;68.58
21742;BME280;11033;47.490;11.116;2023-03-23T07:44:13;92744.69;;;9.96;68.27
21742;BME280;11033;47.490;11.116;2023-03-23T07:46:39;92744.13;;;10.07;69.85
21742;BME280;11033;47.490;11.116;2023-03-23T07:49:04;92750.06;;;10.23;69.04
21742;BME280;11033;47.490;11.116;2023-03-23T07:51:31;92738.56;;;10.30;68.33
21742;BME280;11033;47.490;11.116;2023-03-23T07:53:57;92732.34;;;10.44;68.31
21742;BME280;11033;47.490;11.116;2023-03-23T07:56:22;92732.34;;;10.51;67.59
21742;BME280;11033;47.490;11.116;2023-03-23T07:58:48;92740.88;;;10.66;67.86
21742;BME280;11033;47.490;11.116;2023-03-23T08:01:14;92740.50;;;10.83;67.87
21742;BME280;11033;47.490;11.116;2023-03-23T08:03:40;92745.78;;;10.96;67.68
21742;BME280;11033;47.490;11.116;2023-03-23T08:06:05;92743.19;;;11.09;67.40
21742;BME280;11033;47.490;11.116;2023-03-23T08:08:31;92744.97;;;11.02;66.18
21742;BME280;11033;47.490;11.116;2023-03-23T08:10:57;92750.66;;;11.25;66.14
21742;BME280;11033;47.490;11.116;2023-03-23T08:13:22;92747.81;;;11.40;66.23
21742;BME280;11033;47.490;11.116;2023-03-23T08:15:48;92758.34;;;11.53;66.68
21742;BME280;11033;47.490;11.116;2023-03-23T08:18:14;92742.50;;;11.60;66.00
21742;BME280;11033;47.490;11.116;2023-03-23T08:20:40;92749.19;;;11.69;64.93
21742;BME280;11033;47.490;11.116;2023-03-23T08:23:05;92741.91;;;11.84;65.55
21742;BME280;11033;47.490;11.116;2023-03-23T08:25:31;92732.72;;;11.93;65.82
21742;BME280;11033;47.490;11.116;2023-03-23T08:27:57;92735.94;;;12.09;64.90
21742;BME280;11033;47.490;11.116;2023-03-23T08:30:23;92731.00;;;12.19;64.20
21742;BME280;11033;47.490;11.116;2023-03-23T08:32:51;92734.84;;;12.23;64.58
21742;BME280;11033;47.490;11.116;2023-03-23T08:35:17;92736.66;;;12.29;63.17
21742;BME280;11033;47.490;11.116;2023-03-23T08:37:43;92734.16;;;12.47;63.90
21742;BME280;11033;47.490;11.116;2023-03-23T08:40:11;92735.69;;;12.61;63.58
21742;BME280;11033;47.490;11.116;2023-03-23T08:42:38;92734.41;;;12.70;63.36
21742;BME280;11033;47.490;11.116;2023-03-23T08:45:08;92734.75;;;12.81;62.76
21742;BME280;11033;47.490;11.116;2023-03-23T08:47:35;92744.47;;;12.87;62.19
21742;BME280;11033;47.490;11.116;2023-03-23T08:50:02;92743.38;;;13.01;62.01
21742;BME280;11033;47.490;11.116;2023-03-23T08:52:28;92744.75;;;13.10;61.79
21742;BME280;11033;47.490;11.116;2023-03-23T08:54:54;92734.53;;;13.14;61.38
21742;BME280;11033;47.490;11.116;2023-03-23T08:57:19;92747.91;;;13.25;60.45
21742;BME280;11033;47.490;11.116;2023-03-23T08:59:45;92754.13;;;13.38;60.43
21742;BME280;11033;47.490;11.116;2023-03-23T09:02:11;92743.41;;;13.51;60.25
21742;BME280;11033;47.490;11.116;2023-03-23T09:04:40;92748.81;;;13.62;60.90
21742;BME280;11033;47.490;11.116;2023-03-23T09:07:08;92746.72;;;13.71;60.93
21742;BME280;11033;47.490;11.116;2023-03-23T09:09:34;92745.19;;;13.82;60.35
21742;BME280;11033;47.490;11.116;2023-03-23T09:12:00;92751.34;;;13.94;59.81
21742;BME280;11033;47.490;11.116;2023-03-23T09:14:26;92746.13;;;14.06;59.28
21742;BME280;11033;47.490;11.116;2023-03-23T09:16:52;92746.66;;;14.14;58.46
21742;BME280;11033;47.490;11.116;2023-03-23T09:19:17;92750.25;;;14.20;58.71
21742;BME280;11033;47.490;11.116;2023-03-23T09:21:42;92750.53;;;14.30;58.47
21742;BME280;11033;47.490;11.116;2023-03-23T09:24:08;92751.66;;;14.41;58.47
21742;BME280;11033;47.490;11.116;2023-03-23T09:26:35;92754.41;;;14.52;58.70
21742;BME280;11033;47.490;11.116;2023-03-23T09:29:00;92745.88;;;14.50;57.39
21742;BME280;11033;47.490;11.116;2023-03-23T09:31:26;92740.84;;;14.61;58.52
21742;BME280;11033;47.490;11.116;2023-03-23T09:33:53;92742.13;;;14.70;57.74
21742;BME280;11033;47.490;11.116;2023-03-23T09:36:21;92734.91;;;14.77;58.04
21742;BME280;11033;47.490;11.116;2023-03-23T09:38:48;92738.84;;;14.86;56.81
21742;BME280;11033;47.490;11.116;2023-03-23T09:41:34;92731.59;;;14.93;57.49
21742;BME280;11033;47.490;11.116;2023-03-23T09:47:17;92726.00;;;15.01;55.50
21742;BME280;11033;47.490;11.116;2023-03-23T09:49:45;92719.47;;;15.15;56.20
21742;BME280;11033;47.490;11.116;2023-03-23T09:52:15;92711.75;;;15.26;56.05
21742;BME280;11033;47.490;11.116;2023-03-23T09:54:43;92708.41;;;15.42;55.97
21742;BME280;11033;47.490;11.116;2023-03-23T09:57:24;92712.25;;;15.58;56.78
21742;BME280;11033;47.490;11.116;2023-03-23T09:59:56;92719.22;;;15.70;56.34
21742;BME280;11033;47.490;11.116;2023-03-23T10:02:43;92708.69;;;15.87;55.84
21742;BME280;11033;47.490;11.116;2023-03-23T10:05:31;92701.75;;;15.98;54.84
21742;BME280;11033;47.490;11.116;2023-03-23T10:07:59;92709.66;;;16.21;54.72
21742;BME280;11033;47.490;11.116;2023-03-23T10:10:39;92707.81;;;16.33;53.18
21742;BME280;11033;47.490;11.116;2023-03-23T10:15:56;92705.66;;;16.59;54.41
21742;BME280;11033;47.490;11.116;2023-03-23T10:18:43;92707.66;;;16.80;54.12
21742;BME280;11033;47.490;11.116;2023-03-23T10:21:16;92711.44;;;16.96;52.71
21742;BME280;11033;47.490;11.116;2023-03-23T10:26:22;92700.97;;;17.06;49.85
21742;BME280;11033;47.490;11.116;2023-03-23T10:28:56;92709.75;;;17.06;48.42
21742;BME280;11033;47.490;11.116;2023-03-23T10:31:26;92711.44;;;16.96;49.00
21742;BME280;11033;47.490;11.116;2023-03-23T10:33:54;92716.69;;;17.07;49.18
21742;BME280;11033;47.490;11.116;2023-03-23T10:36:31;92711.38;;;16.79;46.97
21742;BME280;11033;47.490;11.116;2023-03-23T10:39:13;92718.72;;;17.17;48.56
21742;BME280;11033;47.490;11.116;2023-03-23T10:41:39;92726.00;;;17.22;47.36
21742;BME280;11033;47.490;11.116;2023-03-23T10:44:16;92714.22;;;17.34;48.80
21742;BME280;11033;47.490;11.116;2023-03-23T10:46:49;92722.28;;;17.39;46.67
21742;BME280;11033;47.490;11.116;2023-03-23T10:49:21;92715.66;;;17.42;45.34
21742;BME280;11033;47.490;11.116;2023-03-23T10:51:59;92714.69;;;17.48;46.09
21742;BME280;11033;47.490;11.116;2023-03-23T10:54:37;92724.88;;;17.51;47.46
21742;BME280;11033;47.490;11.116;2023-03-23T10:57:22;92722.53;;;17.38;43.99
21742;BME280;11033;47.490;11.116;2023-03-23T10:59:49;92722.13;;;17.46;47.03
21742;BME280;11033;47.490;11.116;2023-03-23T11:02:17;92715.59;;;17.54;45.87
21742;BME280;11033;47.490;11.116;2023-03-23T11:04:55;92721.44;;;17.67;47.61
21742;BME280;11033;47.490;11.116;2023-03-23T11:07:33;92718.28;;;17.70;47.45
21742;BME280;11033;47.490;11.116;2023-03-23T11:10:24;92724.75;;;17.74;47.71
21742;BME280;11033;47.490;11.116;2023-03-23T11:12:51;92719.25;;;17.81;47.55
21742;BME280;11033;47.490;11.116;2023-03-23T11:15:27;92717.50;;;17.70;44.58
21742;BME280;11033;47.490;11.116;2023-03-23T11:17:57;92710.44;;;17.81;45.84
21742;BME280;11033;47.490;11.116;2023-03-23T11:20:24;92706.50;;;17.83;44.77
21742;BME280;11033;47.490;11.116;2023-03-23T11:22:50;92712.78;;;17.94;45.39
21742;BME280;11033;47.490;11.116;2023-03-23T11:25:15;92709.63;;;17.97;45.49
21742;BME280;11033;47.490;11.116;2023-03-23T11:27:41;92709.53;;;17.92;43.90
21742;BME280;11033;47.490;11.116;2023-03-23T11:30:09;92710.88;;;18.11;43.62
21742;BME280;11033;47.490;11.116;2023-03-23T11:32:35;92712.53;;;18.34;44.75
21742;BME280;11033;47.490;11.116;2023-03-23T11:35:11;92700.69;;;18.47;44.47
21742;BME280;11033;47.490;11.116;2023-03-23T11:37:42;92699.63;;;18.69;44.00
21742;BME280;11033;47.490;11.116;2023-03-23T11:45:31;92680.53;;;19.05;39.93
21742;BME280;11033;47.490;11.116;2023-03-23T11:51:05;92672.28;;;19.38;39.89
21742;BME280;11033;47.490;11.116;2023-03-23T11:56:32;92662.34;;;19.60;41.96
21742;BME280;11033;47.490;11.116;2023-03-23T11:58:58;92663.88;;;19.93;43.29
21742;BME280;11033;47.490;11.116;2023-03-23T12:01:47;92666.31;;;20.00;42.09
21742;BME280;11033;47.490;11.116;2023-03-23T12:15:02;92661.09;;;20.20;36.78
21742;BME280;11033;47.490;11.116;2023-03-23T12:18:09;92661.66;;;20.22;37.46
21742;BME280;11033;47.490;11.116;2023-03-23T12:20:36;92649.78;;;20.66;38.01
21742;BME280;11033;47.490;11.116;2023-03-23T12:26:02;92642.59;;;20.76;35.34
21742;BME280;11033;47.490;11.116;2023-03-23T12:34:15;92621.28;;;21.68;38.35
21742;BME280;11033;47.490;11.116;2023-03-23T12:37:25;92635.75;;;21.41;36.88
21742;BME280;11033;47.490;11.116;2023-03-23T12:40:24;92630.41;;;21.57;36.04
21742;BME280;11033;47.490;11.116;2023-03-23T12:42:59;92629.56;;;21.81;36.85
21742;BME280;11033;47.490;11.116;2023-03-23T12:48:16;92627.72;;;21.31;36.50
21742;BME280;11033;47.490;11.116;2023-03-23T12:50:45;92617.22;;;21.75;38.29
21742;BME280;11033;47.490;11.116;2023-03-23T12:53:20;92618.56;;;21.83;35.88
21742;BME280;11033;47.490;11.116;2023-03-23T12:55:49;92615.91;;;21.68;36.42
21742;BME280;11033;47.490;11.116;2023-03-23T12:58:20;92607.47;;;22.30;37.70
21742;BME280;11033;47.490;11.116;2023-03-23T13:01:06;92600.78;;;22.02;36.28
21742;BME280;11033;47.490;11.116;2023-03-23T13:03:57;92599.59;;;22.49;36.01
21742;BME280;11033;47.490;11.116;2023-03-23T13:11:39;92597.81;;;22.89;35.73
21742;BME280;11033;47.490;11.116;2023-03-23T13:17:47;92606.47;;;22.65;36.15
21742;BME280;11033;47.490;11.116;2023-03-23T13:20:38;92600.13;;;22.46;34.97
21742;BME280;11033;47.490;11.116;2023-03-23T13:23:22;92595.41;;;22.23;34.69
21742;BME280;11033;47.490;11.116;2023-03-23T13:26:00;92597.03;;;22.24;35.85
21742;BME280;11033;47.490;11.116;2023-03-23T13:28:29;92585.59;;;22.57;36.94
21742;BME280;11033;47.490;11.116;2023-03-23T13:33:20;92583.66;;;21.98;36.91
21742;BME280;11033;47.490;11.116;2023-03-23T13:35:48;92587.41;;;21.97;37.25
21742;BME280;11033;47.490;11.116;2023-03-23T13:40:45;92588.03;;;21.59;38.49
21742;BME280;11033;47.490;11.116;2023-03-23T13:43:11;92582.63;;;20.72;38.36
21742;BME280;11033;47.490;11.116;2023-03-23T13:45:45;92585.31;;;20.77;39.14
21742;BME280;11033;47.490;11.116;2023-03-23T13:50:54;92583.38;;;20.47;39.09
21742;BME280;11033;47.490;11.116;2023-03-23T13:53:30;92582.22;;;20.33;39.98
21742;BME280;11033;47.490;11.116;2023-03-23T13:59:06;92577.78;;;20.59;38.80
21742;BME280;11033;47.490;11.116;2023-03-23T14:01:37;92561.97;;;20.57;40.39
21742;BME280;11033;47.490;11.116;2023-03-23T14:04:15;92567.94;;;21.15;39.38
21742;BME280;11033;47.490;11.116;2023-03-23T14:06:42;92561.75;;;21.61;39.72
21742;BME280;11033;47.490;11.116;2023-03-23T14:09:12;92559.03;;;21.76;37.58
21742;BME280;11033;47.490;11.116;2023-03-23T14:11:56;92545.00;;;22.64;36.54
21742;BME280;11033;47.490;11.116;2023-03-23T14:14:33;92546.94;;;23.31;36.55
21742;BME280;11033;47.490;11.116;2023-03-23T14:17:21;92542.34;;;23.03;34.25
21742;BME280;11033;47.490;11.116;2023-03-23T14:19:50;92546.44;;;23.87;34.14
21742;BME280;11033;47.490;11.116;2023-03-23T14:22:23;92552.41;;;23.84;33.39
21742;BME280;11033;47.490;11.116;2023-03-23T14:24:48;92552.66;;;24.36;33.00
21742;BME280;11033;47.490;11.116;2023-03-23T14:27:16;92553.59;;;24.21;33.09